sensor_id;sensor_type;location;lat;lon;timestamp;pressure;altitude;pressure_sealevel;temperature;humidity
69855;BME280;57146;48.140;16.304;2024-03-29T00:02:08;98365.81;;;8.66;54.30
69855;BME280;57146;48.140;16.304;2024-03-29T00:04:34;98357.94;;;8.66;53.86
69855;BME280;57146;48.140;16.304;2024-03-29T00:07:01;98381.56;;;8.66;53.72
69855;BME280;57146;48.140;16.304;2024-03-29T00:09:27;98368.13;;;8.68;53.74
69855;BME280;57146;48.140;16.304;2024-03-29T00:11:53;98374.16;;;8.68;53.45
69855;BME280;57146;48.140;16.304;2024-03-29T00:14:19;98374.00;;;8.73;54.31
69855;BME280;57146;48.140;16.304;2024-03-29T00:16:45;98381.09;;;8.73;53.54
69855;BME280;57146;48.140;16.304;2024-03-29T00:19:11;98381.88;;;8.73;54.31
69855;BME280;57146;48.140;16.304;2024-03-29T00:21:36;98382.31;;;8.67;54.58
69855;BME280;57146;48.140;16.304;2024-03-29T00:24:02;98385.88;;;8.62;54.96
69855;BME280;57146;48.140;16.304;2024-03-29T00:26:28;98388.19;;;8.63;54.33
69855;BME280;57146;48.140;16.304;2024-03-29T00:28:54;98392.81;;;8.58;54.40
69855;BME280;57146;48.140;16.304;2024-03-29T00:31:20;98399.78;;;8.54;54.66
69855;BME280;57146;48.140;16.304;2024-03-29T00:33:46;98398.97;;;8.53;54.67
69855;BME280;57146;48.140;16.304;2024-03-29T00:36:11;98405.91;;;8.49;54.25
69855;BME280;57146;48.140;16.304;2024-03-29T00:38:39;98403.78;;;8.51;53.96
69855;BME280;57146;48.140;16.304;2024-03-29T00:41:05;98399.91;;;8.49;54.70
69855;BME280;57146;48.140;16.304;2024-03-29T00:43:31;98401.59;;;8.45;55.06
69855;BME280;57146;48.140;16.304;2024-03-29T00:45:57;98402.03;;;8.38;55.26
69855;BME280;57146;48.140;16.304;2024-03-29T00:48:23;98408.19;;;8.33;55.16
69855;BME280;57146;48.140;16.304;2024-03-29T00:50:49;98401.69;;;8.31;54.63
69855;BME280;57146;48.140;16.304;2024-03-29T00:53:15;98416.50;;;8.27;55.45
69855;BME280;57146;48.140;16.304;2024-03-29T00:55:41;98422.16;;;8.20;55.57
69855;BME280;57146;48.140;16.304;2024-03-29T00:58:07;98427.25;;;8.16;55.39
69855;BME280;57146;48.140;16.304;2024-03-29T01:00:33;98432.16;;;8.09;56.10
69855;BME280;57146;48.140;16.304;2024-03-29T01:02:59;98435.88;;;8.08;55.64
69855;BME280;57146;48.140;16.304;2024-03-29T01:05:26;98441.72;;;8.05;55.58
69855;BME280;57146;48.140;16.304;2024-03-29T01:07:52;98453.38;;;7.99;55.95
69855;BME280;57146;48.140;16.304;2024-03-29T01:10:18;98460.31;;;7.95;56.36
69855;BME280;57146;48.140;16.304;2024-03-29T01:12:44;98461.81;;;7.87;56.77
69855;BME280;57146;48.140;16.304;2024-03-29T01:15:10;98469.78;;;7.82;56.41
69855;BME280;57146;48.140;16.304;2024-03-29T01:17:36;98477.47;;;7.79;56.96
69855;BME280;57146;48.140;16.304;2024-03-29T01:20:01;98485.00;;;7.72;57.15
69855;BME280;57146;48.140;16.304;2024-03-29T01:22:27;98479.56;;;7.68;57.26
69855;BME280;57146;48.140;16.304;2024-03-29T01:24:55;98480.19;;;7.65;57.27
69855;BME280;57146;48.140;16.304;2024-03-29T01:27:20;98481.84;;;7.61;57.63
69855;BME280;57146;48.140;16.304;2024-03-29T01:29:46;98479.22;;;7.61;57.72
69855;BME280;57146;48.140;16.304;2024-03-29T01:32:14;98484.28;;;7.57;57.63
69855;BME280;57146;48.140;16.304;2024-03-29T01:34:40;98502.44;;;7.54;57.99
69855;BME280;57146;48.140;16.304;2024-03-29T01:37:06;98500.25;;;7.47;58.17
69855;BME280;57146;48.140;16.304;2024-03-29T01:39:33;98504.53;;;7.43;58.63
69855;BME280;57146;48.140;16.304;2024-03-29T01:41:59;98500.78;;;7.35;58.55
69855;BME280;57146;48.140;16.304;2024-03-29T01:44:26;98509.22;;;7.32;58.34
69855;BME280;57146;48.140;16.304;2024-03-29T01:46:51;98523.97;;;7.28;58.70
69855;BME280;57146;48.140;16.304;2024-03-29T01:49:18;98522.72;;;7.26;59.54
69855;BME280;57146;48.140;16.304;2024-03-29T01:51:43;98524.09;;;7.23;58.76
69855;BME280;57146;48.140;16.304;2024-03-29T01:54:10;98532.53;;;7.20;59.17
69855;BME280;57146;48.140;16.304;2024-03-29T01:56:40;98532.22;;;7.22;59.11
69855;BME280;57146;48.140;16.304;2024-03-29T01:59:15;98524.97;;;7.18;59.06
69855;BME280;57146;48.140;16.304;2024-03-29T02:01:42;98526.34;;;7.16;58.81
69855;BME280;57146;48.140;16.304;2024-03-29T02:04:09;98542.31;;;7.14;58.85
69855;BME280;57146;48.140;16.304;2024-03-29T02:06:36;98550.00;;;7.11;59.26
69855;BME280;57146;48.140;16.304;2024-03-29T02:09:03;98563.38;;;7.09;59.50
69855;BME280;57146;48.140;16.304;2024-03-29T02:11:29;98571.81;;;7.06;59.45
69855;BME280;57146;48.140;16.304;2024-03-29T02:13:55;98586.75;;;7.06;59.72
69855;BME280;57146;48.140;16.304;2024-03-29T02:16:22;98593.06;;;7.05;59.92
69855;BME280;57146;48.140;16.304;2024-03-29T02:18:48;98588.47;;;6.96;60.43
69855;BME280;57146;48.140;16.304;2024-03-29T02:21:17;98586.38;;;6.85;60.09
69855;BME280;57146;48.140;16.304;2024-03-29T02:23:47;98573.09;;;6.81;60.53
69855;BME280;57146;48.140;16.304;2024-03-29T02:26:13;98582.59;;;6.77;60.42
69855;BME280;57146;48.140;16.304;2024-03-29T02:28:39;98569.41;;;6.68;60.97
69855;BME280;57146;48.140;16.304;2024-03-29T02:31:05;98561.28;;;6.70;60.88
69855;BME280;57146;48.140;16.304;2024-03-29T02:33:31;98557.19;;;6.64;60.89
69855;BME280;57146;48.140;16.304;2024-03-29T02:35:57;98562.53;;;6.59;61.20
69855;BME280;57146;48.140;16.304;2024-03-29T02:38:24;98564.75;;;6.52;61.66
69855;BME280;57146;48.140;16.304;2024-03-29T02:40:50;98562.53;;;6.45;61.83
69855;BME280;57146;48.140;16.304;2024-03-29T02:43:16;98560.78;;;6.40;62.55
69855;BME280;57146;48.140;16.304;2024-03-29T02:45:42;98566.00;;;6.40;62.35
69855;BME280;57146;48.140;16.304;2024-03-29T02:48:08;98567.63;;;6.36;62.78
69855;BME280;57146;48.140;16.304;2024-03-29T02:50:35;98564.81;;;6.33;62.68
69855;BME280;57146;48.140;16.304;2024-03-29T02:53:01;98558.91;;;6.27;62.75
69855;BME280;57146;48.140;16.304;2024-03-29T02:55:27;98548.63;;;6.17;62.96
69855;BME280;57146;48.140;16.304;2024-03-29T02:57:53;98547.66;;;6.13;63.51
69855;BME280;57146;48.140;16.304;2024-03-29T03:00:19;98548.50;;;6.08;63.80
69855;BME280;57146;48.140;16.304;2024-03-29T03:02:45;98553.63;;;5.99;64.05
69855;BME280;57146;48.140;16.304;2024-03-29T03:05:11;98560.19;;;5.97;64.41
69855;BME280;57146;48.140;16.304;2024-03-29T03:07:36;98561.81;;;5.93;64.30
69855;BME280;57146;48.140;16.304;2024-03-29T03:10:02;98568.09;;;5.92;64.29
69855;BME280;57146;48.140;16.304;2024-03-29T03:12:31;98572.34;;;5.88;64.26
69855;BME280;57146;48.140;16.304;2024-03-29T03:14:58;98572.53;;;5.91;64.23
69855;BME280;57146;48.140;16.304;2024-03-29T03:17:26;98580.31;;;5.96;63.61
69855;BME280;57146;48.140;16.304;2024-03-29T03:19:52;98591.53;;;5.97;63.21
69855;BME280;57146;48.140;16.304;2024-03-29T03:22:19;98600.44;;;5.96;63.44
69855;BME280;57146;48.140;16.304;2024-03-29T03:24:45;98598.47;;;5.88;63.55
69855;BME280;57146;48.140;16.304;2024-03-29T03:27:11;98601.84;;;5.88;63.59
69855;BME280;57146;48.140;16.304;2024-03-29T03:29:36;98598.16;;;5.89;63.63
69855;BME280;57146;48.140;16.304;2024-03-29T03:32:03;98607.34;;;5.87;63.79
69855;BME280;57146;48.140;16.304;2024-03-29T03:34:29;98607.50;;;5.76;64.26
69855;BME280;57146;48.140;16.304;2024-03-29T03:36:56;98606.88;;;5.66;64.85
69855;BME280;57146;48.140;16.304;2024-03-29T03:39:21;98613.22;;;5.60;64.58
69855;BME280;57146;48.140;16.304;2024-03-29T03:41:47;98622.91;;;5.59;64.78
69855;BME280;57146;48.140;16.304;2024-03-29T03:44:18;98625.84;;;5.52;65.28
69855;BME280;57146;48.140;16.304;2024-03-29T03:46:43;98634.59;;;5.43;65.14
69855;BME280;57146;48.140;16.304;2024-03-29T03:49:09;98628.09;;;5.40;65.33
69855;BME280;57146;48.140;16.304;2024-03-29T03:51:35;98626.41;;;5.31;65.61
69855;BME280;57146;48.140;16.304;2024-03-29T03:54:01;98629.81;;;5.26;66.54
69855;BME280;57146;48.140;16.304;2024-03-29T03:56:27;98632.50;;;5.21;66.39
69855;BME280;57146;48.140;16.304;2024-03-29T03:58:53;98622.47;;;5.09;66.19
69855;BME280;57146;48.140;16.304;2024-03-29T04:01:19;98630.34;;;5.04;66.91
69855;BME280;57146;48.140;16.304;2024-03-29T04:03:46;98634.03;;;5.03;66.76
69855;BME280;57146;48.140;16.304;2024-03-29T04:06:12;98634.63;;;4.95;67.04
69855;BME280;57146;48.140;16.304;2024-03-29T04:08:38;98629.75;;;4.88;67.18
69855;BME280;57146;48.140;16.304;2024-03-29T04:11:04;98642.56;;;4.85;67.35
69855;BME280;57146;48.140;16.304;2024-03-29T04:13:31;98640.78;;;4.80;67.91
69855;BME280;57146;48.140;16.304;2024-03-29T04:16:05;98635.91;;;4.73;68.60
69855;BME280;57146;48.140;16.304;2024-03-29T04:18:32;98632.06;;;4.66;68.39
69855;BME280;57146;48.140;16.304;2024-03-29T04:20:59;98622.44;;;4.61;68.54
69855;BME280;57146;48.140;16.304;2024-03-29T04:23:27;98632.72;;;4.52;68.53
69855;BME280;57146;48.140;16.304;2024-03-29T04:25:57;98627.28;;;4.49;69.57
69855;BME280;57146;48.140;16.304;2024-03-29T04:28:25;98629.66;;;4.45;69.50
69855;BME280;57146;48.140;16.304;2024-03-29T04:30:56;98621.38;;;4.38;70.01
69855;BME280;57146;48.140;16.304;2024-03-29T04:33:23;98623.84;;;4.24;70.51
69855;BME280;57146;48.140;16.304;2024-03-29T04:35:56;98631.69;;;4.19;70.68
69855;BME280;57146;48.140;16.304;2024-03-29T04:38:22;98621.78;;;4.16;70.52
69855;BME280;57146;48.140;16.304;2024-03-29T04:40:50;98635.09;;;4.15;71.11
69855;BME280;57146;48.140;16.304;2024-03-29T04:43:16;98636.97;;;4.09;70.98
69855;BME280;57146;48.140;16.304;2024-03-29T04:45:45;98647.38;;;4.09;70.63
69855;BME280;57146;48.140;16.304;2024-03-29T04:48:12;98655.75;;;4.06;71.51
69855;BME280;57146;48.140;16.304;2024-03-29T04:50:39;98645.66;;;3.99;71.75
69855;BME280;57146;48.140;16.304;2024-03-29T04:53:05;98646.72;;;3.93;71.89
69855;BME280;57146;48.140;16.304;2024-03-29T04:55:31;98637.38;;;3.87;71.47
69855;BME280;57146;48.140;16.304;2024-03-29T04:57:58;98647.78;;;3.87;72.32
69855;BME280;57146;48.140;16.304;2024-03-29T05:00:24;98648.84;;;3.86;72.78
69855;BME280;57146;48.140;16.304;2024-03-29T05:02:50;98650.38;;;3.92;72.73
69855;BME280;57146;48.140;16.304;2024-03-29T05:05:17;98648.81;;;3.91;72.71
69855;BME280;57146;48.140;16.304;2024-03-29T05:07:43;98645.16;;;3.92;72.76
69855;BME280;57146;48.140;16.304;2024-03-29T05:10:09;98646.47;;;3.90;72.45
69855;BME280;57146;48.140;16.304;2024-03-29T05:12:35;98639.22;;;3.87;72.78
69855;BME280;57146;48.140;16.304;2024-03-29T05:15:02;98633.50;;;3.84;73.29
69855;BME280;57146;48.140;16.304;2024-03-29T05:17:27;98643.88;;;3.90;72.75
69855;BME280;57146;48.140;16.304;2024-03-29T05:19:54;98651.16;;;3.93;73.29
69855;BME280;57146;48.140;16.304;2024-03-29T05:22:20;98658.91;;;3.98;73.26
69855;BME280;57146;48.140;16.304;2024-03-29T05:24:46;98644.59;;;4.00;73.33
69855;BME280;57146;48.140;16.304;2024-03-29T05:27:12;98652.09;;;4.07;72.89
69855;BME280;57146;48.140;16.304;2024-03-29T05:29:38;98649.72;;;4.11;73.44
69855;BME280;57146;48.140;16.304;2024-03-29T05:32:05;98649.88;;;4.24;72.26
69855;BME280;57146;48.140;16.304;2024-03-29T05:34:31;98644.09;;;4.32;73.15
69855;BME280;57146;48.140;16.304;2024-03-29T05:36:57;98645.31;;;4.40;73.23
69855;BME280;57146;48.140;16.304;2024-03-29T05:39:22;98653.06;;;4.50;72.74
69855;BME280;57146;48.140;16.304;2024-03-29T05:41:48;98651.13;;;4.61;71.76
69855;BME280;57146;48.140;16.304;2024-03-29T05:44:14;98646.88;;;4.70;72.44
69855;BME280;57146;48.140;16.304;2024-03-29T05:46:40;98640.78;;;4.80;71.80
69855;BME280;57146;48.140;16.304;2024-03-29T05:49:06;98637.50;;;4.93;72.02
69855;BME280;57146;48.140;16.304;2024-03-29T05:51:32;98640.22;;;5.07;70.33
69855;BME280;57146;48.140;16.304;2024-03-29T05:54:00;98627.28;;;5.21;69.73
69855;BME280;57146;48.140;16.304;2024-03-29T05:56:26;98632.66;;;5.29;70.24
69855;BME280;57146;48.140;16.304;2024-03-29T05:58:51;98648.19;;;5.40;70.52
69855;BME280;57146;48.140;16.304;2024-03-29T06:01:18;98630.78;;;5.54;68.82
69855;BME280;57146;48.140;16.304;2024-03-29T06:03:43;98632.06;;;5.75;68.71
69855;BME280;57146;48.140;16.304;2024-03-29T06:06:09;98631.03;;;5.95;67.92
69855;BME280;57146;48.140;16.304;2024-03-29T06:08:35;98626.06;;;6.13;66.72
69855;BME280;57146;48.140;16.304;2024-03-29T06:11:01;98625.31;;;6.26;66.30
69855;BME280;57146;48.140;16.304;2024-03-29T06:13:26;98627.69;;;6.41;66.06
69855;BME280;57146;48.140;16.304;2024-03-29T06:15:52;98627.03;;;6.63;64.14
69855;BME280;57146;48.140;16.304;2024-03-29T06:18:18;98621.81;;;6.77;64.03
69855;BME280;57146;48.140;16.304;2024-03-29T06:20:46;98625.81;;;6.88;64.02
69855;BME280;57146;48.140;16.304;2024-03-29T06:23:12;98627.06;;;7.05;63.37
69855;BME280;57146;48.140;16.304;2024-03-29T06:25:39;98613.69;;;7.20;62.31
69855;BME280;57146;48.140;16.304;2024-03-29T06:28:05;98615.31;;;7.43;59.76
69855;BME280;57146;48.140;16.304;2024-03-29T06:30:32;98601.09;;;7.58;58.84
69855;BME280;57146;48.140;16.304;2024-03-29T06:32:57;98591.72;;;7.80;58.09
69855;BME280;57146;48.140;16.304;2024-03-29T06:35:23;98597.06;;;7.97;58.16
69855;BME280;57146;48.140;16.304;2024-03-29T06:37:49;98601.41;;;8.24;54.58
69855;BME280;57146;48.140;16.304;2024-03-29T06:40:15;98595.13;;;8.34;55.82
69855;BME280;57146;48.140;16.304;2024-03-29T06:42:41;98594.41;;;8.42;56.04
69855;BME280;57146;48.140;16.304;2024-03-29T06:45:07;98594.34;;;8.56;54.26
69855;BME280;57146;48.140;16.304;2024-03-29T06:47:32;98589.44;;;8.63;54.06
69855;BME280;57146;48.140;16.304;2024-03-29T06:49:58;98586.06;;;8.71;53.97
69855;BME280;57146;48.140;16.304;2024-03-29T06:52:24;98582.06;;;8.74;53.61
69855;BME280;57146;48.140;16.304;2024-03-29T06:54:50;98576.09;;;8.91;53.79
69855;BME280;57146;48.140;16.304;2024-03-29T06:57:16;98573.63;;;9.03;53.92
69855;BME280;57146;48.140;16.304;2024-03-29T06:59:41;98557.28;;;9.06;53.13
69855;BME280;57146;48.140;16.304;2024-03-29T07:02:07;98553.28;;;9.08;53.12
69855;BME280;57146;48.140;16.304;2024-03-29T07:04:33;98552.06;;;9.23;53.50
69855;BME280;57146;48.140;16.304;2024-03-29T07:06:59;98548.97;;;9.39;53.42
69855;BME280;57146;48.140;16.304;2024-03-29T07:09:25;98541.56;;;9.49;53.36
69855;BME280;57146;48.140;16.304;2024-03-29T07:11:51;98540.47;;;9.59;53.36
69855;BME280;57146;48.140;16.304;2024-03-29T07:14:18;98546.34;;;9.73;53.86
69855;BME280;57146;48.140;16.304;2024-03-29T07:16:45;98539.22;;;9.82;53.26
69855;BME280;57146;48.140;16.304;2024-03-29T07:19:12;98543.50;;;9.96;53.63
69855;BME280;57146;48.140;16.304;2024-03-29T07:21:39;98540.69;;;10.10;53.09
69855;BME280;57146;48.140;16.304;2024-03-29T07:24:05;98535.56;;;10.22;54.17
69855;BME280;57146;48.140;16.304;2024-03-29T07:26:32;98526.09;;;10.38;52.63
69855;BME280;57146;48.140;16.304;2024-03-29T07:28:58;98520.47;;;10.48;52.74
69855;BME280;57146;48.140;16.304;2024-03-29T07:31:24;98515.31;;;10.61;52.92
69855;BME280;57146;48.140;16.304;2024-03-29T07:33:50;98514.13;;;10.79;52.02
69855;BME280;57146;48.140;16.304;2024-03-29T07:36:15;98504.00;;;10.90;52.65
69855;BME280;57146;48.140;16.304;2024-03-29T07:38:41;98500.66;;;11.01;52.99
69855;BME280;57146;48.140;16.304;2024-03-29T07:41:07;98496.56;;;11.13;52.73
69855;BME280;57146;48.140;16.304;2024-03-29T07:43:40;98482.69;;;11.24;52.78
69855;BME280;57146;48.140;16.304;2024-03-29T07:46:07;98487.59;;;11.47;51.59
69855;BME280;57146;48.140;16.304;2024-03-29T07:48:34;98489.44;;;11.67;50.59
69855;BME280;57146;48.140;16.304;2024-03-29T07:51:00;98472.16;;;11.91;50.57
69855;BME280;57146;48.140;16.304;2024-03-29T07:53:25;98467.22;;;12.02;50.59
69855;BME280;57146;48.140;16.304;2024-03-29T07:55:51;98465.16;;;12.07;50.93
69855;BME280;57146;48.140;16.304;2024-03-29T07:58:17;98481.97;;;12.15;51.15
69855;BME280;57146;48.140;16.304;2024-03-29T08:00:43;98479.13;;;12.32;51.18
69855;BME280;57146;48.140;16.304;2024-03-29T08:03:09;98480.22;;;12.43;53.07
69855;BME280;57146;48.140;16.304;2024-03-29T08:05:35;98471.53;;;12.43;52.79
69855;BME280;57146;48.140;16.304;2024-03-29T08:08:01;98468.88;;;12.55;52.69
69855;BME280;57146;48.140;16.304;2024-03-29T08:10:27;98460.41;;;12.74;52.41
69855;BME280;57146;48.140;16.304;2024-03-29T08:12:52;98453.31;;;12.90;54.06
69855;BME280;57146;48.140;16.304;2024-03-29T08:15:18;98446.63;;;13.09;52.88
69855;BME280;57146;48.140;16.304;2024-03-29T08:17:44;98446.84;;;13.28;53.29
69855;BME280;57146;48.140;16.304;2024-03-29T08:20:10;98441.81;;;13.39;53.23
69855;BME280;57146;48.140;16.304;2024-03-29T08:22:36;98448.91;;;13.51;53.55
69855;BME280;57146;48.140;16.304;2024-03-29T08:25:02;98451.84;;;13.61;54.33
69855;BME280;57146;48.140;16.304;2024-03-29T08:27:28;98448.19;;;13.66;55.13
69855;BME280;57146;48.140;16.304;2024-03-29T08:29:54;98443.75;;;13.70;54.99
69855;BME280;57146;48.140;16.304;2024-03-29T08:32:21;98440.09;;;13.75;54.92
69855;BME280;57146;48.140;16.304;2024-03-29T08:34:47;98430.63;;;13.74;55.64
69855;BME280;57146;48.140;16.304;2024-03-29T08:37:13;98432.59;;;13.77;55.39
69855;BME280;57146;48.140;16.304;2024-03-29T08:39:38;98426.59;;;13.80;56.31
69855;BME280;57146;48.140;16.304;2024-03-29T08:42:05;98438.72;;;13.81;55.34
69855;BME280;57146;48.140;16.304;2024-03-29T08:44:32;98444.88;;;13.85;55.88
69855;BME280;57146;48.140;16.304;2024-03-29T08:46:58;98447.25;;;13.90;55.57
69855;BME280;57146;48.140;16.304;2024-03-29T08:49:24;98446.34;;;13.98;56.06
69855;BME280;57146;48.140;16.304;2024-03-29T08:51:50;98437.44;;;14.06;55.83
69855;BME280;57146;48.140;16.304;2024-03-29T08:54:16;98443.50;;;14.07;55.16
69855;BME280;57146;48.140;16.304;2024-03-29T08:56:42;98419.16;;;14.01;55.74
69855;BME280;57146;48.140;16.304;2024-03-29T08:59:09;98406.53;;;14.10;55.94
69855;BME280;57146;48.140;16.304;2024-03-29T09:01:47;98415.84;;;14.20;55.58
69855;BME280;57146;48.140;16.304;2024-03-29T09:04:13;98413.44;;;14.31;56.33
69855;BME280;57146;48.140;16.304;2024-03-29T09:06:39;98411.78;;;14.42;55.74
69855;BME280;57146;48.140;16.304;2024-03-29T09:09:05;98399.81;;;14.48;55.52
69855;BME280;57146;48.140;16.304;2024-03-29T09:11:33;98395.88;;;14.58;55.80
69855;BME280;57146;48.140;16.304;2024-03-29T09:14:00;98393.59;;;14.76;55.83
69855;BME280;57146;48.140;16.304;2024-03-29T09:16:25;98385.44;;;14.84;54.22
69855;BME280;57146;48.140;16.304;2024-03-29T09:18:54;98378.81;;;14.94;54.64
69855;BME280;57146;48.140;16.304;2024-03-29T09:21:20;98372.78;;;15.17;52.26
69855;BME280;57146;48.140;16.304;2024-03-29T09:23:46;98372.91;;;15.24;52.25
69855;BME280;57146;48.140;16.304;2024-03-29T09:26:12;98363.00;;;15.21;52.53
69855;BME280;57146;48.140;16.304;2024-03-29T09:28:38;98353.03;;;15.33;52.13
69855;BME280;57146;48.140;16.304;2024-03-29T09:31:04;98357.31;;;15.42;51.30
69855;BME280;57146;48.140;16.304;2024-03-29T09:33:30;98354.09;;;15.52;51.24
69855;BME280;57146;48.140;16.304;2024-03-29T09:35:55;98346.59;;;15.57;51.69
69855;BME280;57146;48.140;16.304;2024-03-29T09:38:21;98347.19;;;15.70;50.52
69855;BME280;57146;48.140;16.304;2024-03-29T09:40:57;98350.31;;;15.76;50.50
69855;BME280;57146;48.140;16.304;2024-03-29T09:43:28;98358.50;;;15.90;50.45
69855;BME280;57146;48.140;16.304;2024-03-29T09:45:56;98353.97;;;15.91;48.94
69855;BME280;57146;48.140;16.304;2024-03-29T09:48:23;98353.25;;;15.94;49.30
69855;BME280;57146;48.140;16.304;2024-03-29T09:50:50;98351.75;;;15.96;49.42
69855;BME280;57146;48.140;16.304;2024-03-29T09:53:19;98351.47;;;16.01;48.97
69855;BME280;57146;48.140;16.304;2024-03-29T09:55:46;98345.38;;;16.01;49.51
69855;BME280;57146;48.140;16.304;2024-03-29T09:58:12;98343.88;;;16.03;49.81
69855;BME280;57146;48.140;16.304;2024-03-29T10:00:38;98345.16;;;16.13;49.95
69855;BME280;57146;48.140;16.304;2024-03-29T10:03:05;98345.25;;;16.20;49.15
69855;BME280;57146;48.140;16.304;2024-03-29T10:05:32;98336.63;;;16.27;48.65
69855;BME280;57146;48.140;16.304;2024-03-29T10:07:58;98339.72;;;16.33;49.19
69855;BME280;57146;48.140;16.304;2024-03-29T10:10:24;98331.81;;;16.36;48.25
69855;BME280;57146;48.140;16.304;2024-03-29T10:12:50;98334.47;;;16.36;49.16
69855;BME280;57146;48.140;16.304;2024-03-29T10:15:16;98332.63;;;16.40;49.30
69855;BME280;57146;48.140;16.304;2024-03-29T10:17:46;98322.81;;;16.44;49.28
69855;BME280;57146;48.140;16.304;2024-03-29T10:20:15;98322.16;;;16.51;48.52
69855;BME280;57146;48.140;16.304;2024-03-29T10:22:42;98314.94;;;16.51;49.39
69855;BME280;57146;48.140;16.304;2024-03-29T10:25:08;98317.97;;;16.53;48.97
69855;BME280;57146;48.140;16.304;2024-03-29T10:27:35;98304.28;;;16.48;48.92
69855;BME280;57146;48.140;16.304;2024-03-29T10:30:01;98298.16;;;16.44;48.76
69855;BME280;57146;48.140;16.304;2024-03-29T10:32:27;98303.16;;;16.52;49.43
69855;BME280;57146;48.140;16.304;2024-03-29T10:34:52;98294.53;;;16.59;49.98
69855;BME280;57146;48.140;16.304;2024-03-29T10:37:19;98291.88;;;16.59;48.83
69855;BME280;57146;48.140;16.304;2024-03-29T10:39:45;98288.50;;;16.62;48.37
69855;BME280;57146;48.140;16.304;2024-03-29T10:42:11;98305.28;;;16.70;48.46
69855;BME280;57146;48.140;16.304;2024-03-29T10:44:41;98298.81;;;16.71;48.43
69855;BME280;57146;48.140;16.304;2024-03-29T10:47:09;98292.31;;;16.68;48.09
69855;BME280;57146;48.140;16.304;2024-03-29T10:49:40;98285.06;;;16.62;47.58
69855;BME280;57146;48.140;16.304;2024-03-29T10:52:07;98284.25;;;16.58;47.58
69855;BME280;57146;48.140;16.304;2024-03-29T10:54:36;98285.34;;;16.53;48.29
69855;BME280;57146;48.140;16.304;2024-03-29T10:57:19;98278.13;;;16.53;48.50
69855;BME280;57146;48.140;16.304;2024-03-29T11:05:16;98270.13;;;16.50;48.58
69855;BME280;57146;48.140;16.304;2024-03-29T11:07:44;98278.47;;;16.48;49.80
69855;BME280;57146;48.140;16.304;2024-03-29T11:10:14;98271.66;;;16.51;49.02
69855;BME280;57146;48.140;16.304;2024-03-29T11:15:31;98282.66;;;16.49;49.87
69855;BME280;57146;48.140;16.304;2024-03-29T11:18:00;98269.00;;;16.51;49.75
69855;BME280;57146;48.140;16.304;2024-03-29T11:20:28;98261.53;;;16.64;50.27
69855;BME280;57146;48.140;16.304;2024-03-29T11:22:54;98260.44;;;16.68;49.81
69855;BME280;57146;48.140;16.304;2024-03-29T11:25:21;98259.34;;;16.69;50.50
69855;BME280;57146;48.140;16.304;2024-03-29T11:27:47;98252.16;;;16.73;50.26
69855;BME280;57146;48.140;16.304;2024-03-29T11:30:17;98253.75;;;16.78;49.70
69855;BME280;57146;48.140;16.304;2024-03-29T11:32:43;98250.38;;;16.81;49.94
69855;BME280;57146;48.140;16.304;2024-03-29T11:35:15;98258.41;;;16.88;50.63
69855;BME280;57146;48.140;16.304;2024-03-29T11:37:40;98251.19;;;16.89;49.91
69855;BME280;57146;48.140;16.304;2024-03-29T11:40:10;98236.03;;;16.93;49.95
69855;BME280;57146;48.140;16.304;2024-03-29T11:42:38;98240.28;;;16.97;50.06
69855;BME280;57146;48.140;16.304;2024-03-29T11:45:09;98230.88;;;17.11;51.67
69855;BME280;57146;48.140;16.304;2024-03-29T11:47:36;98209.38;;;17.30;50.75
69855;BME280;57146;48.140;16.304;2024-03-29T11:50:02;98214.38;;;17.42;49.88
69855;BME280;57146;48.140;16.304;2024-03-29T11:52:27;98199.66;;;17.56;49.63
69855;BME280;57146;48.140;16.304;2024-03-29T11:54:56;98186.75;;;17.58;49.88
69855;BME280;57146;48.140;16.304;2024-03-29T11:57:22;98181.03;;;17.59;49.83
69855;BME280;57146;48.140;16.304;2024-03-29T11:59:48;98180.69;;;17.64;49.46
69855;BME280;57146;48.140;16.304;2024-03-29T12:02:14;98171.28;;;17.78;49.48
69855;BME280;57146;48.140;16.304;2024-03-29T12:04:41;98169.00;;;17.80;49.93
69855;BME280;57146;48.140;16.304;2024-03-29T12:07:07;98160.28;;;17.83;49.23
69855;BME280;57146;48.140;16.304;2024-03-29T12:09:33;98149.28;;;17.99;49.14
69855;BME280;57146;48.140;16.304;2024-03-29T12:11:58;98141.38;;;18.27;44.33
69855;BME280;57146;48.140;16.304;2024-03-29T12:14:24;98137.22;;;18.48;44.37
69855;BME280;57146;48.140;16.304;2024-03-29T12:16:50;98147.16;;;18.69;42.72
69855;BME280;57146;48.140;16.304;2024-03-29T12:19:25;98146.78;;;18.92;41.83
69855;BME280;57146;48.140;16.304;2024-03-29T12:21:52;98145.63;;;19.10;41.49
69855;BME280;57146;48.140;16.304;2024-03-29T12:24:17;98150.94;;;19.32;42.17
69855;BME280;57146;48.140;16.304;2024-03-29T12:26:43;98142.13;;;19.35;41.95
69855;BME280;57146;48.140;16.304;2024-03-29T12:29:09;98130.28;;;19.54;42.23
69855;BME280;57146;48.140;16.304;2024-03-29T12:31:35;98132.53;;;19.59;42.36
69855;BME280;57146;48.140;16.304;2024-03-29T12:34:01;98131.78;;;19.58;41.78
69855;BME280;57146;48.140;16.304;2024-03-29T12:36:27;98129.91;;;19.45;42.32
69855;BME280;57146;48.140;16.304;2024-03-29T12:38:56;98124.22;;;19.46;42.57
69855;BME280;57146;48.140;16.304;2024-03-29T12:41:22;98118.88;;;19.50;41.66
69855;BME280;57146;48.140;16.304;2024-03-29T12:43:47;98116.94;;;19.50;41.97
69855;BME280;57146;48.140;16.304;2024-03-29T12:46:13;98111.97;;;19.52;43.09
69855;BME280;57146;48.140;16.304;2024-03-29T12:48:39;98116.53;;;19.55;42.26
69855;BME280;57146;48.140;16.304;2024-03-29T12:51:07;98123.41;;;19.53;41.88
69855;BME280;57146;48.140;16.304;2024-03-29T12:53:33;98119.22;;;19.55;41.76
69855;BME280;57146;48.140;16.304;2024-03-29T12:55:59;98100.19;;;19.46;42.22
69855;BME280;57146;48.140;16.304;2024-03-29T12:58:25;98099.06;;;19.44;42.70
69855;BME280;57146;48.140;16.304;2024-03-29T13:00:50;98104.78;;;19.38;42.84